Time;durP1;ratioP1;P1;durP2;ratioP2;P2;SDS_P1;SDS_P2;PMS_P1;PMS_P2;Temp;Humidity;BMP_temperature;BMP_pressure;BME280_temperature;BME280_humidity;BME280_pressure;Samples;Min_cycle;Max_cycle;Signal;HPM_P1;HPM_P2
2022/01/07 00:01:06;;;;;;;51.08;21.77;;;3.20;99.90;;;;;;5067976;28;20055;-69
2022/01/07 00:03:32;;;;;;;53.42;20.48;;;3.20;99.90;;;;;;5067836;28;20053;-70
2022/01/07 00:05:59;;;;;;;34.40;18.38;;;3.20;99.90;;;;;;5068220;28;20464;-70
2022/01/07 00:08:26;;;;;;;42.13;20.02;;;3.20;99.90;;;;;;5067637;28;20113;-70
2022/01/07 00:10:52;;;;;;;31.70;16.77;;;3.20;99.90;;;;;;5069329;28;20044;-69
2022/01/07 00:13:17;;;;;;;44.83;18.48;;;3.20;99.90;;;;;;5068918;28;20434;-70
2022/01/07 00:15:45;;;;;;;41.55;18.50;;;3.20;99.90;;;;;;5064628;28;20048;-70
2022/01/07 00:18:10;;;;;;;37.13;18.48;;;3.20;99.90;;;;;;5050600;28;20049;-70
2022/01/07 00:20:37;;;;;;;41.58;18.75;;;3.20;99.90;;;;;;5065823;28;20052;-70
2022/01/07 00:23:03;;;;;;;30.45;15.80;;;3.20;99.90;;;;;;5069462;28;20032;-70
2022/01/07 00:25:29;;;;;;;39.67;18.45;;;3.20;99.90;;;;;;5063444;28;20798;-70
2022/01/07 00:27:54;;;;;;;41.03;17.35;;;3.20;99.90;;;;;;5081477;28;20129;-69
2022/01/07 00:30:21;;;;;;;39.03;17.67;;;3.30;99.90;;;;;;5067562;28;20051;-69
2022/01/07 00:32:47;;;;;;;35.90;17.00;;;3.30;99.90;;;;;;5067936;28;20051;-69
2022/01/07 00:35:15;;;;;;;34.95;18.52;;;3.30;99.90;;;;;;5066250;28;20803;-69
2022/01/07 00:37:43;;;;;;;31.15;17.92;;;3.20;99.90;;;;;;5069337;28;20044;-70
2022/01/07 00:40:13;;;;;;;45.90;16.23;;;3.30;99.90;;;;;;5066654;28;20507;-69
2022/01/07 00:42:39;;;;;;;30.73;16.50;;;3.30;99.90;;;;;;5068454;28;20056;-70
2022/01/07 00:45:05;;;;;;;33.00;16.65;;;3.30;99.90;;;;;;5066529;28;20123;-69
2022/01/07 00:47:32;;;;;;;34.17;16.77;;;3.30;99.90;;;;;;5067074;28;20121;-69
2022/01/07 00:50:00;;;;;;;41.28;16.17;;;3.30;99.90;;;;;;5052903;28;20090;-69
2022/01/07 00:52:26;;;;;;;42.08;16.38;;;3.30;99.90;;;;;;5068346;28;20405;-70
2022/01/07 00:54:52;;;;;;;38.03;17.00;;;3.30;99.90;;;;;;5065756;28;20049;-69
2022/01/07 00:57:18;;;;;;;39.83;15.18;;;3.30;99.90;;;;;;5065436;28;20049;-69
2022/01/07 00:59:46;;;;;;;28.15;14.75;;;3.30;99.90;;;;;;5069547;28;20509;-69
2022/01/07 01:02:12;;;;;;;43.00;17.45;;;3.30;99.90;;;;;;5078513;28;20051;-70
2022/01/07 01:04:38;;;;;;;40.42;16.10;;;3.30;99.90;;;;;;5067447;28;20154;-70
2022/01/07 01:07:04;;;;;;;34.42;16.45;;;3.30;99.90;;;;;;5066389;28;20056;-71
2022/01/07 01:09:29;;;;;;;33.42;16.10;;;3.20;99.90;;;;;;5066267;28;20075;-70
2022/01/07 01:11:56;;;;;;;28.90;14.52;;;3.20;99.90;;;;;;5066201;28;20127;-70
2022/01/07 01:14:22;;;;;;;27.63;16.02;;;3.20;99.90;;;;;;5048503;28;20047;-70
2022/01/07 01:16:48;;;;;;;31.83;16.45;;;3.10;99.90;;;;;;5068107;28;20413;-70
2022/01/07 01:19:14;;;;;;;35.88;16.95;;;3.10;99.90;;;;;;5063989;28;20044;-70
2022/01/07 01:21:39;;;;;;;32.70;17.52;;;3.10;99.90;;;;;;5064133;28;20048;-70
2022/01/07 01:24:06;;;;;;;30.65;16.20;;;3.00;99.90;;;;;;5065602;28;20072;-70
2022/01/07 01:26:31;;;;;;;31.58;16.58;;;3.00;99.90;;;;;;5067381;28;20428;-70
2022/01/07 01:28:58;;;;;;;32.53;15.98;;;3.00;99.90;;;;;;5067095;28;20083;-70
2022/01/07 01:31:23;;;;;;;35.15;18.42;;;2.90;99.90;;;;;;5067654;28;20080;-70
2022/01/07 01:33:49;;;;;;;37.42;18.20;;;2.90;99.90;;;;;;5067672;28;20091;-70
2022/01/07 01:36:15;;;;;;;36.33;17.73;;;2.90;99.90;;;;;;5071224;28;20129;-70
2022/01/07 01:38:41;;;;;;;36.40;18.83;;;2.80;99.90;;;;;;5082032;28;20043;-70
2022/01/07 01:41:08;;;;;;;34.15;16.85;;;2.80;99.90;;;;;;5073230;28;20052;-70
2022/01/07 01:43:34;;;;;;;33.88;18.25;;;2.80;99.90;;;;;;5071109;28;20055;-70
2022/01/07 01:46:00;;;;;;;48.35;19.27;;;2.80;99.90;;;;;;5071184;28;20615;-70
2022/01/07 01:48:26;;;;;;;33.45;17.42;;;2.70;99.90;;;;;;5071302;28;20127;-71
2022/01/07 01:50:54;;;;;;;39.95;18.35;;;2.70;99.90;;;;;;5070868;28;20157;-70
2022/01/07 01:53:20;;;;;;;;;;;2.70;99.90;;;;;;5075452;28;20416;-70
2022/01/07 01:55:46;;;;;;;50.90;19.65;;;2.60;99.90;;;;;;5082426;28;19931;-70
2022/01/07 01:58:11;;;;;;;32.92;17.48;;;2.60;99.90;;;;;;5057919;28;20044;-70
2022/01/07 02:00:38;;;;;;;33.03;20.20;;;2.70;99.90;;;;;;5070537;28;20051;-70
2022/01/07 02:03:05;;;;;;;38.28;19.92;;;2.60;99.90;;;;;;5072971;28;20062;-70
2022/01/07 02:05:31;;;;;;;45.10;19.63;;;2.60;99.90;;;;;;5071153;28;20056;-70
2022/01/07 02:07:57;;;;;;;36.10;18.58;;;2.60;99.90;;;;;;5059806;28;20496;-71
2022/01/07 02:10:23;;;;;;;31.17;19.30;;;2.60;99.90;;;;;;5072176;28;20403;-71
2022/01/07 02:12:49;;;;;;;46.38;20.73;;;2.60;99.90;;;;;;5068565;28;20071;-71
2022/01/07 02:15:15;;;;;;;30.77;19.27;;;2.60;99.90;;;;;;5065374;28;20596;-70
2022/01/07 02:17:43;;;;;;;38.13;20.02;;;2.60;99.90;;;;;;5060938;28;20032;-70
2022/01/07 02:20:12;;;;;;;42.72;20.95;;;2.60;99.90;;;;;;5071846;28;20055;-70
2022/01/07 02:22:38;;;;;;;34.45;20.58;;;2.60;99.90;;;;;;5068450;28;20048;-71
2022/01/07 02:25:04;;;;;;;36.95;21.02;;;2.50;99.90;;;;;;5069583;28;20036;-70
2022/01/07 02:27:34;;;;;;;45.47;22.17;;;2.60;99.90;;;;;;5058053;28;20432;-70
2022/01/07 02:30:00;;;;;;;36.90;22.15;;;2.60;99.90;;;;;;5069774;28;20394;-70
2022/01/07 02:32:25;;;;;;;46.72;23.38;;;2.60;99.90;;;;;;5070511;28;20055;-71
2022/01/07 02:34:51;;;;;;;40.47;20.42;;;2.60;99.90;;;;;;5050726;28;20039;-71
2022/01/07 02:37:17;;;;;;;42.22;23.55;;;2.60;99.90;;;;;;5068703;28;20128;-71
2022/01/07 02:39:45;;;;;;;37.00;22.50;;;2.60;99.90;;;;;;5076541;28;20174;-71
2022/01/07 02:42:11;;;;;;;51.30;23.83;;;2.60;99.90;;;;;;5070274;28;20048;-71
2022/01/07 02:44:37;;;;;;;44.53;24.90;;;2.60;99.90;;;;;;5069419;28;20071;-70
2022/01/07 02:47:03;;;;;;;41.25;23.55;;;2.50;99.90;;;;;;5068251;28;20719;-71
2022/01/07 02:49:28;;;;;;;38.22;23.08;;;2.50;99.90;;;;;;5068111;28;20053;-71
2022/01/07 02:51:54;;;;;;;41.03;24.88;;;2.50;99.90;;;;;;5070127;28;20052;-71
2022/01/07 02:54:20;;;;;;;42.30;23.27;;;2.50;99.90;;;;;;5069027;28;20056;-71
2022/01/07 02:56:46;;;;;;;42.30;25.65;;;2.50;99.90;;;;;;5070119;28;20036;-70
2022/01/07 02:59:11;;;;;;;49.55;26.17;;;2.50;99.90;;;;;;5066878;28;20401;-70
2022/01/07 03:01:38;;;;;;;53.92;26.40;;;2.50;99.90;;;;;;5071256;28;20390;-70
2022/01/07 03:04:05;;;;;;;40.55;23.85;;;2.50;99.90;;;;;;5070480;28;20390;-70
2022/01/07 03:06:31;;;;;;;38.00;23.15;;;2.50;99.90;;;;;;5069824;28;20044;-71
2022/01/07 03:08:57;;;;;;;49.58;26.95;;;2.50;99.90;;;;;;5068065;28;20066;-70
2022/01/07 03:11:23;;;;;;;43.35;25.25;;;2.40;99.90;;;;;;5070062;28;20048;-71
2022/01/07 03:13:49;;;;;;;49.25;25.15;;;2.50;99.90;;;;;;5068837;28;20493;-71
2022/01/07 03:16:15;;;;;;;42.00;26.35;;;2.50;99.90;;;;;;5070201;28;20043;-71
2022/01/07 03:18:41;;;;;;;46.60;26.63;;;2.50;99.90;;;;;;5070714;28;20522;-70
2022/01/07 03:21:07;;;;;;;45.53;26.83;;;2.50;99.90;;;;;;5067482;28;20129;-71
2022/01/07 03:23:33;;;;;;;41.75;27.65;;;2.40;99.90;;;;;;5064943;28;20115;-70
2022/01/07 03:25:59;;;;;;;45.92;28.48;;;2.50;99.90;;;;;;5060285;28;20129;-70
2022/01/07 03:28:25;;;;;;;46.95;28.45;;;2.50;99.90;;;;;;5068330;28;20044;-71
2022/01/07 03:30:50;;;;;;;38.33;27.80;;;2.50;99.90;;;;;;5070077;28;20074;-70
2022/01/07 03:33:18;;;;;;;41.88;27.15;;;2.40;99.90;;;;;;5069677;28;20052;-70
2022/01/07 03:35:43;;;;;;;45.88;27.83;;;2.50;99.90;;;;;;5068587;28;20044;-70
2022/01/07 03:38:09;;;;;;;49.08;27.70;;;2.50;99.90;;;;;;5066433;28;20406;-71
2022/01/07 03:40:36;;;;;;;42.40;28.50;;;2.50;99.90;;;;;;5068038;28;20134;-71
2022/01/07 03:43:02;;;;;;;46.80;26.83;;;2.50;99.90;;;;;;5063397;28;20037;-71
2022/01/07 03:45:28;;;;;;;36.45;26.10;;;2.50;99.90;;;;;;5066981;28;20044;-71
2022/01/07 03:47:54;;;;;;;37.47;25.25;;;2.50;99.90;;;;;;5066845;28;20047;-71
2022/01/07 03:50:25;;;;;;;43.88;26.27;;;2.50;99.90;;;;;;5063952;28;20405;-71
2022/01/07 03:52:52;;;;;;;42.45;26.52;;;2.50;99.90;;;;;;5065390;28;20047;-71
2022/01/07 03:55:21;;;;;;;46.58;28.38;;;2.50;99.90;;;;;;5064652;28;20417;-71
2022/01/07 03:57:47;;;;;;;45.25;25.77;;;2.50;99.90;;;;;;5064038;28;20094;-71
2022/01/07 04:00:20;;;;;;;41.58;27.70;;;2.50;99.90;;;;;;5065900;28;20045;-71
2022/01/07 04:02:48;;;;;;;41.03;27.00;;;2.50;99.90;;;;;;5069098;28;20057;-71
2022/01/07 04:05:15;;;;;;;37.83;26.27;;;2.50;99.90;;;;;;5067680;28;20056;-71
2022/01/07 04:07:41;;;;;;;44.00;25.05;;;2.50;99.90;;;;;;5066294;28;20040;-71
2022/01/07 04:10:07;;;;;;;44.75;28.15;;;2.50;99.90;;;;;;5066685;28;20048;-71
2022/01/07 04:12:32;;;;;;;42.85;28.63;;;2.50;99.90;;;;;;5069265;28;20059;-71
2022/01/07 04:15:08;;;;;;;49.40;27.65;;;2.50;99.90;;;;;;5067100;28;20048;-71
2022/01/07 04:17:39;;;;;;;48.70;28.90;;;2.50;99.90;;;;;;5068799;28;20048;-71
2022/01/07 04:20:08;;;;;;;47.58;27.85;;;2.50;99.90;;;;;;5049360;28;20045;-71
2022/01/07 04:22:33;;;;;;;46.65;28.42;;;2.60;99.90;;;;;;5068701;28;20052;-71
2022/01/07 04:25:08;;;;;;;48.92;27.65;;;2.60;99.90;;;;;;5067362;28;20055;-70
2022/01/07 04:27:34;;;;;;;48.85;29.92;;;2.60;99.90;;;;;;5067578;28;20620;-70
2022/01/07 04:30:00;;;;;;;47.20;29.17;;;2.60;99.90;;;;;;5057143;28;20048;-70
2022/01/07 04:32:26;;;;;;;47.47;27.75;;;2.60;99.90;;;;;;5066712;28;20041;-70
2022/01/07 04:34:52;;;;;;;44.22;26.27;;;2.60;99.90;;;;;;5055592;28;20040;-70
2022/01/07 04:37:18;;;;;;;39.28;27.83;;;2.60;99.90;;;;;;5065569;28;20102;-71
2022/01/07 04:39:44;;;;;;;44.90;28.13;;;2.60;99.90;;;;;;5054244;28;20056;-71
2022/01/07 04:42:10;;;;;;;37.03;25.08;;;2.60;99.90;;;;;;5061951;28;20592;-71
2022/01/07 04:44:40;;;;;;;47.85;28.58;;;2.60;99.90;;;;;;5061658;28;20101;-70
2022/01/07 04:47:09;;;;;;;42.92;29.45;;;2.60;99.90;;;;;;5066754;28;20115;-71
2022/01/07 04:49:36;;;;;;;43.42;27.65;;;2.60;99.90;;;;;;5065914;28;20049;-70
2022/01/07 04:52:03;;;;;;;35.13;25.80;;;2.60;99.90;;;;;;5065362;28;20056;-71
2022/01/07 04:54:30;;;;;;;37.80;25.70;;;2.70;99.90;;;;;;5067652;28;20065;-70
2022/01/07 04:56:55;;;;;;;40.83;26.70;;;2.70;99.90;;;;;;5065613;28;20064;-71
2022/01/07 04:59:21;;;;;;;41.20;26.23;;;2.70;99.90;;;;;;5066870;28;20052;-71
2022/01/07 05:01:47;;;;;;;46.65;26.23;;;2.70;99.90;;;;;;5063909;28;20048;-70
2022/01/07 05:04:14;;;;;;;44.13;28.80;;;2.70;99.90;;;;;;5066338;28;20152;-70
2022/01/07 05:06:45;;;;;;;36.15;25.58;;;2.70;99.90;;;;;;5066403;28;20160;-71
2022/01/07 05:09:13;;;;;;;42.17;26.75;;;2.70;99.90;;;;;;5067336;28;20049;-71
2022/01/07 05:11:39;;;;;;;36.35;25.65;;;2.70;99.90;;;;;;5068606;28;20819;-71
2022/01/07 05:14:05;;;;;;;44.15;25.27;;;2.70;99.90;;;;;;5071803;28;20040;-71
2022/01/07 05:16:30;;;;;;;41.13;25.90;;;2.70;99.90;;;;;;5072343;28;20393;-71
2022/01/07 05:18:57;;;;;;;45.63;25.77;;;2.70;99.90;;;;;;5073300;28;20102;-71
2022/01/07 05:21:24;;;;;;;33.58;23.42;;;2.70;99.90;;;;;;5071321;28;20044;-71
2022/01/07 05:23:50;;;;;;;36.90;27.20;;;2.70;99.90;;;;;;5075176;28;20040;-71
2022/01/07 05:26:15;;;;;;;38.30;25.38;;;2.70;99.90;;;;;;5069273;28;20394;-71
2022/01/07 05:28:41;;;;;;;39.15;24.40;;;2.70;99.90;;;;;;5064800;28;20386;-71
2022/01/07 05:31:07;;;;;;;35.17;23.98;;;2.70;99.90;;;;;;5054804;28;20161;-71
2022/01/07 05:33:32;;;;;;;31.40;24.75;;;2.70;99.90;;;;;;5066708;28;20037;-71
2022/01/07 05:35:58;;;;;;;35.47;23.58;;;2.70;99.90;;;;;;5060008;28;20436;-71
2022/01/07 05:38:24;;;;;;;34.47;23.05;;;2.70;99.90;;;;;;5065024;28;20044;-70
2022/01/07 05:40:50;;;;;;;32.78;23.40;;;2.80;99.90;;;;;;5070079;28;20135;-71
2022/01/07 05:43:16;;;;;;;38.00;24.05;;;2.80;99.90;;;;;;5061261;28;20132;-70
2022/01/07 05:45:45;;;;;;;30.27;21.45;;;2.80;99.90;;;;;;5068222;28;20047;-71
2022/01/07 05:48:11;;;;;;;30.60;22.63;;;2.80;99.90;;;;;;5070785;28;20086;-69
2022/01/07 05:50:37;;;;;;;30.52;22.08;;;2.80;99.90;;;;;;5069862;28;20048;-70
2022/01/07 05:53:03;;;;;;;31.13;22.15;;;2.80;99.90;;;;;;5070637;28;20051;-71
2022/01/07 05:55:28;;;;;;;35.08;22.67;;;2.80;99.90;;;;;;5069399;28;20056;-70
2022/01/07 05:57:54;;;;;;;30.60;22.83;;;2.80;99.90;;;;;;5071482;28;20048;-71
2022/01/07 06:00:20;;;;;;;32.65;21.98;;;2.80;99.90;;;;;;5068555;28;20436;-71
2022/01/07 06:02:46;;;;;;;28.15;21.08;;;2.80;99.90;;;;;;5072104;28;20153;-71
2022/01/07 06:05:11;;;;;;;30.75;21.73;;;2.80;99.90;;;;;;5069924;28;21002;-71
2022/01/07 06:07:37;;;;;;;28.40;21.23;;;2.80;99.90;;;;;;5067177;28;20040;-71
2022/01/07 06:10:05;;;;;;;33.58;22.73;;;2.80;99.90;;;;;;5068068;28;20053;-71
2022/01/07 06:12:31;;;;;;;32.97;20.40;;;2.80;99.90;;;;;;5068543;28;20048;-71
2022/01/07 06:14:57;;;;;;;36.05;20.95;;;2.80;99.90;;;;;;5071778;28;20301;-71
2022/01/07 06:17:23;;;;;;;28.73;20.90;;;2.80;99.90;;;;;;5067579;28;20055;-71
2022/01/07 06:19:48;;;;;;;25.20;19.90;;;2.80;99.90;;;;;;5070304;28;20036;-71
2022/01/07 06:22:14;;;;;;;27.98;19.13;;;2.80;99.90;;;;;;5064910;28;20573;-71
2022/01/07 06:24:40;;;;;;;28.52;19.67;;;2.90;99.90;;;;;;5070516;28;20056;-71
2022/01/07 06:27:06;;;;;;;28.27;21.02;;;2.90;99.90;;;;;;5069086;28;20130;-71
2022/01/07 06:29:31;;;;;;;30.15;19.58;;;2.90;99.90;;;;;;5066595;28;20377;-71
2022/01/07 06:31:57;;;;;;;30.42;21.40;;;2.90;99.90;;;;;;5066710;28;20132;-71
2022/01/07 06:34:23;;;;;;;28.58;20.23;;;2.90;99.90;;;;;;5067952;28;20524;-71
2022/01/07 06:36:49;;;;;;;26.20;20.67;;;2.90;99.90;;;;;;5052498;28;20068;-71
2022/01/07 06:39:15;;;;;;;30.27;19.90;;;2.90;99.90;;;;;;5066625;28;20567;-71
2022/01/07 06:41:41;;;;;;;29.60;21.73;;;2.90;99.90;;;;;;5068803;28;20818;-71
2022/01/07 06:44:07;;;;;;;30.23;21.77;;;2.90;99.90;;;;;;5068230;28;20086;-71
2022/01/07 06:46:32;;;;;;;30.05;20.95;;;2.90;99.90;;;;;;5068923;28;20048;-71
2022/01/07 06:48:58;;;;;;;37.13;21.75;;;2.90;99.90;;;;;;5072686;28;20090;-71
2022/01/07 06:51:24;;;;;;;27.23;20.75;;;2.90;99.90;;;;;;5079939;28;20040;-71
2022/01/07 06:53:49;;;;;;;26.48;20.15;;;2.90;99.90;;;;;;5062800;28;20527;-71
2022/01/07 06:56:15;;;;;;;39.90;22.20;;;2.90;99.90;;;;;;5067832;28;20477;-71
2022/01/07 06:58:42;;;;;;;31.20;22.45;;;3.00;99.90;;;;;;5067755;28;20052;-71
2022/01/07 07:01:08;;;;;;;29.40;20.25;;;3.00;99.90;;;;;;5065349;28;20048;-71
2022/01/07 07:03:39;;;;;;;29.15;21.73;;;3.00;99.90;;;;;;5067986;28;20049;-71
2022/01/07 07:06:05;;;;;;;34.74;22.48;;;3.00;99.90;;;;;;5033207;28;1055925;-71
2022/01/07 07:08:31;;;;;;;30.63;22.35;;;3.00;99.90;;;;;;5069482;28;20056;-71
2022/01/07 07:10:56;;;;;;;33.72;24.17;;;3.00;99.90;;;;;;5068942;28;20757;-71
2022/01/07 07:13:22;;;;;;;37.03;23.67;;;3.00;99.90;;;;;;5059599;28;20123;-71
2022/01/07 07:15:48;;;;;;;29.13;22.10;;;3.00;99.90;;;;;;5071592;28;20044;-71
2022/01/07 07:18:14;;;;;;;32.38;22.70;;;3.00;99.90;;;;;;5068627;28;20409;-71
2022/01/07 07:20:40;;;;;;;34.58;23.70;;;3.10;99.90;;;;;;5070816;28;20044;-71
2022/01/07 07:23:05;;;;;;;33.47;24.80;;;3.10;99.90;;;;;;5065071;28;20098;-71
2022/01/07 07:25:31;;;;;;;27.42;21.77;;;3.10;99.90;;;;;;5077245;28;20073;-71
2022/01/07 07:27:57;;;;;;;31.73;22.40;;;3.10;99.90;;;;;;5065473;28;20056;-70
2022/01/07 07:30:24;;;;;;;36.45;22.75;;;3.10;99.90;;;;;;5066896;28;20048;-71
2022/01/07 07:32:53;;;;;;;30.88;23.05;;;3.10;99.90;;;;;;5066971;28;20405;-71
2022/01/07 07:37:44;;;;;;;31.33;22.10;;;3.10;99.90;;;;;;5070124;28;20061;-71
2022/01/07 07:40:10;;;;;;;35.28;23.85;;;3.10;99.90;;;;;;5070251;28;20037;-71
2022/01/07 07:42:37;;;;;;;31.10;24.85;;;3.10;99.90;;;;;;5066031;28;20041;-71
2022/01/07 07:45:03;;;;;;;33.20;23.98;;;3.20;99.90;;;;;;5069834;28;20100;-71
2022/01/07 07:47:29;;;;;;;36.10;24.35;;;3.20;99.90;;;;;;5068921;28;20048;-71
2022/01/07 07:49:54;;;;;;;46.83;27.38;;;3.20;99.90;;;;;;5066008;28;20040;-71
2022/01/07 07:52:20;;;;;;;41.67;27.67;;;3.20;99.90;;;;;;5064729;28;20039;-71
2022/01/07 07:54:46;;;;;;;40.03;27.13;;;3.20;99.90;;;;;;5066963;28;20447;-71
2022/01/07 07:57:11;;;;;;;39.58;28.27;;;3.30;99.90;;;;;;5068402;28;20044;-71
2022/01/07 07:59:37;;;;;;;42.85;28.70;;;3.30;99.90;;;;;;5068951;28;20063;-71
2022/01/07 08:02:05;;;;;;;40.53;27.90;;;3.30;99.90;;;;;;5063945;28;20048;-70
2022/01/07 08:04:31;;;;;;;;;;;3.30;99.90;;;;;;5068140;28;20139;-70
2022/01/07 08:06:57;;;;;;;42.10;27.20;;;3.30;99.90;;;;;;5066138;28;20590;-70
2022/01/07 08:09:24;;;;;;;49.65;31.60;;;3.30;99.90;;;;;;5066526;28;20683;-71
2022/01/07 08:11:52;;;;;;;44.25;27.75;;;3.40;99.90;;;;;;5064851;28;20045;-71
2022/01/07 08:17:04;;;;;;;46.40;29.83;;;3.40;99.90;;;;;;5056607;28;20052;-71
2022/01/07 08:19:30;;;;;;;51.67;33.10;;;3.40;99.90;;;;;;5058975;28;20391;-71
2022/01/07 08:21:56;;;;;;;49.28;32.30;;;3.40;99.90;;;;;;5067071;28;20040;-71
2022/01/07 08:24:21;;;;;;;45.22;28.88;;;3.50;99.90;;;;;;5066765;28;20048;-71
2022/01/07 08:26:47;;;;;;;43.20;29.88;;;3.50;99.90;;;;;;5065868;28;20082;-71
2022/01/07 08:29:14;;;;;;;38.83;28.65;;;3.50;99.90;;;;;;5065494;28;20462;-71
2022/01/07 08:36:51;;;;;;;43.40;29.10;;;3.60;99.90;;;;;;5065611;28;20052;-70
2022/01/07 08:39:17;;;;;;;51.40;27.85;;;3.60;99.90;;;;;;5066892;28;20035;-70
2022/01/07 08:41:42;;;;;;;39.50;26.60;;;3.60;99.90;;;;;;5066066;28;20071;-70
2022/01/07 08:44:09;;;;;;;37.50;26.63;;;3.60;99.90;;;;;;5068498;28;20397;-71
2022/01/07 08:46:34;;;;;;;45.47;29.50;;;3.60;99.90;;;;;;5065447;28;20048;-71
2022/01/07 08:49:01;;;;;;;50.30;29.80;;;3.70;99.90;;;;;;5063152;28;20063;-70
2022/01/07 08:51:27;;;;;;;52.08;30.85;;;3.70;99.90;;;;;;5066437;28;20044;-70
2022/01/07 08:53:53;;;;;;;53.90;33.92;;;3.70;99.90;;;;;;5067029;28;20105;-70
2022/01/07 08:56:23;;;;;;;56.63;35.60;;;3.70;99.90;;;;;;5067492;28;20077;-71
2022/01/07 08:58:53;;;;;;;57.05;38.20;;;3.80;99.90;;;;;;5061508;28;20100;-71
2022/01/07 09:01:19;;;;;;;60.78;36.40;;;3.80;99.90;;;;;;5060152;28;20037;-71
2022/01/07 09:03:45;;;;;;;55.92;38.40;;;3.80;99.90;;;;;;5064486;28;20689;-71
2022/01/07 09:06:11;;;;;;;74.95;40.72;;;3.90;99.90;;;;;;5065417;28;20061;-71
2022/01/07 09:08:36;;;;;;;57.53;39.00;;;3.90;99.90;;;;;;5067149;28;20070;-71
2022/01/07 09:11:03;;;;;;;62.05;37.80;;;3.90;99.90;;;;;;5064693;28;20075;-71
2022/01/07 09:13:28;;;;;;;63.47;40.08;;;4.00;99.90;;;;;;5067107;28;20047;-71
2022/01/07 09:15:54;;;;;;;66.18;38.58;;;4.10;99.90;;;;;;5066310;28;20048;-71
2022/01/07 09:18:21;;;;;;;77.75;41.85;;;4.10;99.90;;;;;;5059440;28;20733;-71
2022/01/07 09:20:48;;;;;;;63.40;40.22;;;4.10;99.90;;;;;;5065524;28;20062;-71
2022/01/07 09:23:14;;;;;;;59.42;38.42;;;4.20;99.90;;;;;;5065525;28;20053;-70
2022/01/07 09:25:41;;;;;;;64.60;40.60;;;4.30;99.90;;;;;;5064024;28;20087;-70
2022/01/07 09:28:09;;;;;;;68.47;40.72;;;4.30;99.90;;;;;;5066356;28;20044;-70
2022/01/07 09:30:36;;;;;;;72.87;42.37;;;4.30;99.90;;;;;;5065999;28;20501;-70
2022/01/07 09:33:03;;;;;;;63.88;41.42;;;4.40;99.90;;;;;;5059862;28;20526;-69
2022/01/07 09:35:29;;;;;;;77.43;43.30;;;4.40;99.90;;;;;;5068449;28;20044;-70
2022/01/07 09:37:54;;;;;;;65.63;40.47;;;4.50;99.90;;;;;;5064658;28;20127;-70
2022/01/07 09:40:20;;;;;;;69.38;41.28;;;4.50;99.90;;;;;;5067229;28;20132;-70
2022/01/07 09:43:13;;;;;;;68.35;41.65;;;4.50;99.90;;;;;;5064021;28;20059;-70
2022/01/07 09:45:39;;;;;;;60.05;40.20;;;4.70;99.90;;;;;;5063781;28;20951;-70
2022/01/07 09:48:06;;;;;;;68.05;42.20;;;4.80;99.90;;;;;;5065188;28;20042;-71
2022/01/07 09:50:33;;;;;;;66.63;39.60;;;4.80;99.90;;;;;;5066901;28;20044;-69
2022/01/07 09:53:04;;;;;;;64.68;41.58;;;4.90;99.90;;;;;;5064173;28;20553;-70
2022/01/07 09:55:30;;;;;;;76.40;39.63;;;5.00;99.90;;;;;;5064830;28;20049;-70
2022/01/07 09:57:55;;;;;;;70.97;41.47;;;5.00;99.90;;;;;;5067016;28;20049;-70
2022/01/07 10:00:21;;;;;;;67.10;39.45;;;5.00;99.90;;;;;;5069850;28;20051;-70
2022/01/07 10:03:03;;;;;;;65.38;40.45;;;5.00;99.90;;;;;;5070133;28;20043;-71
2022/01/07 10:05:29;;;;;;;66.35;40.40;;;5.00;99.90;;;;;;5065856;28;20056;-70
2022/01/07 10:07:55;;;;;;;69.75;41.33;;;4.90;99.90;;;;;;5071199;28;20078;-69
2022/01/07 10:10:20;;;;;;;65.35;40.70;;;4.90;99.90;;;;;;5068951;28;20492;-70
2022/01/07 10:13:00;;;;;;;68.13;39.72;;;4.90;99.90;;;;;;5067712;28;20140;-70
2022/01/07 10:15:37;;;;;;;68.30;40.42;;;5.00;99.90;;;;;;5045218;28;20036;-70
2022/01/07 10:18:12;;;;;;;67.47;39.25;;;5.00;99.90;;;;;;5067317;28;20040;-70
2022/01/07 10:20:40;;;;;;;70.88;40.78;;;5.00;99.90;;;;;;5057371;28;20409;-71
2022/01/07 10:23:14;;;;;;;61.53;39.15;;;5.00;99.90;;;;;;5070703;28;20041;-70
2022/01/07 10:25:42;;;;;;;55.85;35.88;;;5.00;99.90;;;;;;5068551;28;20101;-70
2022/01/07 10:28:10;;;;;;;61.72;38.20;;;5.00;99.90;;;;;;5068452;28;20562;-71
2022/01/07 10:30:41;;;;;;;59.10;35.67;;;5.00;99.90;;;;;;5068936;28;20063;-70
2022/01/07 10:33:24;;;;;;;60.85;37.22;;;5.10;99.90;;;;;;5068890;28;20068;-71
2022/01/07 10:35:52;;;;;;;58.08;36.65;;;5.10;99.90;;;;;;5070280;28;20067;-71
2022/01/07 10:38:21;;;;;;;57.88;33.40;;;5.20;99.90;;;;;;5074783;28;20048;-71
2022/01/07 10:40:49;;;;;;;45.47;28.67;;;5.20;99.90;;;;;;5068881;28;20116;-71
2022/01/07 10:43:19;;;;;;;33.58;22.13;;;5.20;99.90;;;;;;5067076;28;20060;-70
2022/01/07 10:45:57;;;;;;;35.95;22.90;;;5.10;99.90;;;;;;5066128;28;20497;-71
2022/01/07 10:48:41;;;;;;;32.97;22.25;;;5.10;99.90;;;;;;5067216;28;20505;-71
2022/01/07 10:51:15;;;;;;;37.35;24.65;;;5.10;99.90;;;;;;5063296;28;20132;-71
2022/01/07 10:53:46;;;;;;;47.28;27.83;;;5.10;99.90;;;;;;5062978;28;20052;-71
2022/01/07 10:56:14;;;;;;;56.60;27.58;;;5.00;99.90;;;;;;5067663;28;20041;-71
2022/01/07 10:58:43;;;;;;;48.33;29.45;;;5.10;99.90;;;;;;5069290;28;20036;-70
2022/01/07 11:01:35;;;;;;;45.95;30.83;;;5.00;99.90;;;;;;5067314;28;20044;-70
2022/01/07 11:04:03;;;;;;;59.03;35.33;;;5.00;99.90;;;;;;5062695;28;20072;-71
2022/01/07 11:06:30;;;;;;;39.10;25.33;;;5.00;99.90;;;;;;5061979;28;20074;-71
2022/01/07 11:08:58;;;;;;;42.42;25.85;;;5.00;99.90;;;;;;5068052;28;20043;-70
2022/01/07 11:11:25;;;;;;;42.85;25.75;;;5.00;99.90;;;;;;5069190;28;20094;-70
2022/01/07 11:13:51;;;;;;;32.50;19.63;;;5.10;99.90;;;;;;5067723;28;20462;-71
2022/01/07 11:16:18;;;;;;;25.05;13.82;;;5.10;99.90;;;;;;5068572;28;20075;-71
2022/01/07 11:18:45;;;;;;;20.33;12.07;;;5.10;99.90;;;;;;5058403;28;20048;-71
2022/01/07 11:21:12;;;;;;;23.08;11.25;;;5.10;99.90;;;;;;5065500;28;20044;-71
2022/01/07 11:23:41;;;;;;;22.80;9.15;;;5.20;99.90;;;;;;5068080;28;20127;-71
2022/01/07 11:26:11;;;;;;;17.08;9.57;;;5.20;99.90;;;;;;5067054;28;20036;-71
2022/01/07 11:28:53;;;;;;;25.25;10.32;;;5.20;99.90;;;;;;5068284;28;20048;-71
2022/01/07 11:31:19;;;;;;;22.60;11.35;;;5.20;99.90;;;;;;5066655;28;20056;-71
2022/01/07 11:33:45;;;;;;;18.33;10.80;;;5.20;99.90;;;;;;5069602;28;20044;-71
2022/01/07 11:36:34;;;;;;;22.73;15.00;;;5.20;99.90;;;;;;5067764;28;20036;-71
2022/01/07 11:39:03;;;;;;;38.08;18.63;;;5.20;99.90;;;;;;5058496;28;20036;-71
2022/01/07 11:41:48;;;;;;;42.75;19.85;;;5.20;99.90;;;;;;5070232;28;20088;-71
2022/01/07 11:44:20;;;;;;;32.75;19.27;;;5.20;99.90;;;;;;5060209;28;20443;-71
2022/01/07 11:46:46;;;;;;;49.95;23.92;;;5.20;99.90;;;;;;5069078;28;20044;-71
2022/01/07 11:49:41;;;;;;;50.97;25.35;;;5.20;99.90;;;;;;5066749;28;20059;-71
2022/01/07 11:52:33;;;;;;;50.70;28.23;;;5.20;99.90;;;;;;5066418;28;20048;-71
2022/01/07 11:55:28;;;;;;;47.95;29.65;;;5.20;99.90;;;;;;5073132;28;20052;-71
2022/01/07 11:58:01;;;;;;;47.72;28.75;;;5.10;99.90;;;;;;5056775;28;20099;-71
2022/01/07 12:01:03;;;;;;;45.15;29.30;;;5.00;99.90;;;;;;5067093;28;20497;-71
2022/01/07 12:03:42;;;;;;;41.60;28.77;;;5.00;99.90;;;;;;5065312;28;20041;-70
2022/01/07 12:06:23;;;;;;;56.00;29.80;;;4.90;99.90;;;;;;5066179;28;20048;-71
2022/01/07 12:09:19;;;;;;;51.88;30.05;;;4.90;99.90;;;;;;5066063;28;20051;-71
2022/01/07 12:11:52;;;;;;;52.25;30.02;;;5.00;99.90;;;;;;5064268;28;20067;-71
2022/01/07 12:14:26;;;;;;;47.20;28.60;;;5.10;99.90;;;;;;5068066;28;20536;-71
2022/01/07 12:16:55;;;;;;;51.83;29.92;;;5.10;99.90;;;;;;5069382;28;20059;-71
2022/01/07 12:19:25;;;;;;;47.60;28.55;;;5.20;99.90;;;;;;5065868;28;20044;-71
2022/01/07 12:21:57;;;;;;;55.97;29.00;;;5.20;99.90;;;;;;5067122;28;20049;-70
2022/01/07 12:24:28;;;;;;;54.17;28.77;;;5.30;99.90;;;;;;5068187;28;20158;-70
2022/01/07 12:27:07;;;;;;;37.00;25.27;;;5.30;99.90;;;;;;5065903;28;20051;-71
2022/01/07 12:29:39;;;;;;;37.38;22.75;;;5.40;99.90;;;;;;5067046;28;20055;-71
2022/01/07 12:32:06;;;;;;;41.08;20.73;;;5.50;99.90;;;;;;5067679;28;20451;-71
2022/01/07 12:34:45;;;;;;;25.95;16.40;;;5.60;99.90;;;;;;5066507;28;20076;-71
2022/01/07 12:37:13;;;;;;;19.52;10.23;;;5.60;99.90;;;;;;5066184;28;20053;-71
2022/01/07 12:39:48;;;;;;;18.63;9.43;;;5.60;99.90;;;;;;5066372;28;20079;-71
2022/01/07 12:42:14;;;;;;;13.60;6.85;;;5.50;99.90;;;;;;5064820;28;20063;-71
2022/01/07 12:44:52;;;;;;;13.35;6.43;;;5.50;99.90;;;;;;5066581;28;20072;-70
2022/01/07 12:47:19;;;;;;;16.52;5.75;;;5.50;99.90;;;;;;5064361;28;20124;-70
2022/01/07 12:49:47;;;;;;;12.60;4.70;;;5.50;99.90;;;;;;5057123;28;20051;-71
2022/01/07 12:52:29;;;;;;;14.48;4.43;;;5.30;99.90;;;;;;5065244;28;20049;-70